sensor_id;sensor_type;location;lat;lon;timestamp;P1;durP1;ratioP1;P2;durP2;ratioP2
78844;SDS011;68195;50.854;2.860;2023-09-30T00:00:27;8.45;;;3.10;;
78844;SDS011;68195;50.854;2.860;2023-09-30T00:05:23;10.85;;;2.83;;
78844;SDS011;68195;50.854;2.860;2023-09-30T00:10:13;8.53;;;2.93;;
78844;SDS011;68195;50.854;2.860;2023-09-30T00:12:40;9.07;;;3.15;;
78844;SDS011;68195;50.854;2.860;2023-09-30T00:17:33;11.32;;;2.80;;
78844;SDS011;68195;50.854;2.860;2023-09-30T00:19:59;11.10;;;4.00;;
78844;SDS011;68195;50.854;2.860;2023-09-30T00:24:49;11.67;;;3.80;;
78844;SDS011;68195;50.854;2.860;2023-09-30T00:29:41;9.97;;;3.57;;
78844;SDS011;68195;50.854;2.860;2023-09-30T00:34:32;8.93;;;2.57;;
78844;SDS011;68195;50.854;2.860;2023-09-30T00:37:02;10.27;;;3.30;;
78844;SDS011;68195;50.854;2.860;2023-09-30T00:39:32;11.70;;;3.03;;
78844;SDS011;68195;50.854;2.860;2023-09-30T00:41:58;13.15;;;3.28;;
78844;SDS011;68195;50.854;2.860;2023-09-30T00:44:29;9.45;;;2.95;;
78844;SDS011;68195;50.854;2.860;2023-09-30T00:46:56;12.52;;;3.80;;
78844;SDS011;68195;50.854;2.860;2023-09-30T00:51:50;8.75;;;3.05;;
78844;SDS011;68195;50.854;2.860;2023-09-30T00:54:22;11.05;;;2.90;;
78844;SDS011;68195;50.854;2.860;2023-09-30T00:56:50;8.23;;;2.65;;
78844;SDS011;68195;50.854;2.860;2023-09-30T00:59:25;11.05;;;2.97;;
78844;SDS011;68195;50.854;2.860;2023-09-30T01:01:54;9.43;;;2.67;;
78844;SDS011;68195;50.854;2.860;2023-09-30T01:04:22;5.38;;;2.28;;
78844;SDS011;68195;50.854;2.860;2023-09-30T01:06:51;9.77;;;3.13;;
78844;SDS011;68195;50.854;2.860;2023-09-30T01:11:42;8.77;;;2.77;;
78844;SDS011;68195;50.854;2.860;2023-09-30T01:16:51;9.18;;;3.42;;
78844;SDS011;68195;50.854;2.860;2023-09-30T01:21:42;21.83;;;4.43;;
78844;SDS011;68195;50.854;2.860;2023-09-30T01:24:13;10.15;;;3.03;;
78844;SDS011;68195;50.854;2.860;2023-09-30T01:26:39;9.25;;;2.85;;
78844;SDS011;68195;50.854;2.860;2023-09-30T01:31:30;12.70;;;3.43;;
78844;SDS011;68195;50.854;2.860;2023-09-30T01:33:56;7.28;;;2.30;;
78844;SDS011;68195;50.854;2.860;2023-09-30T01:36:24;8.07;;;2.45;;
78844;SDS011;68195;50.854;2.860;2023-09-30T01:41:14;6.70;;;2.33;;
78844;SDS011;68195;50.854;2.860;2023-09-30T01:43:41;11.93;;;2.78;;
78844;SDS011;68195;50.854;2.860;2023-09-30T01:46:09;10.50;;;3.35;;
78844;SDS011;68195;50.854;2.860;2023-09-30T01:51:00;7.63;;;2.70;;
78844;SDS011;68195;50.854;2.860;2023-09-30T01:53:26;8.68;;;3.58;;
78844;SDS011;68195;50.854;2.860;2023-09-30T01:55:53;8.73;;;2.60;;
78844;SDS011;68195;50.854;2.860;2023-09-30T02:00:44;7.23;;;3.53;;
78844;SDS011;68195;50.854;2.860;2023-09-30T02:03:12;9.20;;;2.80;;
78844;SDS011;68195;50.854;2.860;2023-09-30T02:08:04;8.23;;;2.53;;
78844;SDS011;68195;50.854;2.860;2023-09-30T02:10:34;5.75;;;2.35;;
78844;SDS011;68195;50.854;2.860;2023-09-30T02:13:02;7.80;;;2.60;;
78844;SDS011;68195;50.854;2.860;2023-09-30T02:15:31;9.05;;;2.50;;
78844;SDS011;68195;50.854;2.860;2023-09-30T02:20:22;7.68;;;2.60;;
78844;SDS011;68195;50.854;2.860;2023-09-30T02:22:50;4.32;;;2.22;;
78844;SDS011;68195;50.854;2.860;2023-09-30T02:25:19;6.72;;;2.10;;
78844;SDS011;68195;50.854;2.860;2023-09-30T02:27:49;8.75;;;2.75;;
78844;SDS011;68195;50.854;2.860;2023-09-30T02:30:17;10.35;;;3.78;;
78844;SDS011;68195;50.854;2.860;2023-09-30T02:35:11;8.63;;;2.80;;
78844;SDS011;68195;50.854;2.860;2023-09-30T02:40:07;9.10;;;2.83;;
78844;SDS011;68195;50.854;2.860;2023-09-30T02:42:36;9.75;;;2.70;;
78844;SDS011;68195;50.854;2.860;2023-09-30T02:45:08;11.65;;;4.05;;
78844;SDS011;68195;50.854;2.860;2023-09-30T02:47:39;6.57;;;2.60;;
78844;SDS011;68195;50.854;2.860;2023-09-30T02:50:08;9.98;;;2.72;;
78844;SDS011;68195;50.854;2.860;2023-09-30T02:52:36;8.60;;;3.63;;
78844;SDS011;68195;50.854;2.860;2023-09-30T02:55:06;8.10;;;3.53;;
78844;SDS011;68195;50.854;2.860;2023-09-30T02:57:33;9.45;;;3.70;;
78844;SDS011;68195;50.854;2.860;2023-09-30T03:02:25;8.65;;;2.85;;
78844;SDS011;68195;50.854;2.860;2023-09-30T03:07:18;7.50;;;2.83;;
78844;SDS011;68195;50.854;2.860;2023-09-30T03:09:44;8.57;;;2.65;;
78844;SDS011;68195;50.854;2.860;2023-09-30T03:14:37;9.57;;;2.95;;
78844;SDS011;68195;50.854;2.860;2023-09-30T03:19:28;6.47;;;2.67;;
78844;SDS011;68195;50.854;2.860;2023-09-30T03:21:56;10.27;;;2.90;;
78844;SDS011;68195;50.854;2.860;2023-09-30T03:24:23;9.60;;;3.47;;
78844;SDS011;68195;50.854;2.860;2023-09-30T03:26:49;8.13;;;3.05;;
78844;SDS011;68195;50.854;2.860;2023-09-30T03:29:17;9.98;;;3.00;;
78844;SDS011;68195;50.854;2.860;2023-09-30T03:31:44;8.35;;;2.88;;
78844;SDS011;68195;50.854;2.860;2023-09-30T03:34:10;7.90;;;2.95;;
78844;SDS011;68195;50.854;2.860;2023-09-30T03:36:36;9.25;;;3.05;;
78844;SDS011;68195;50.854;2.860;2023-09-30T03:39:02;9.07;;;3.08;;
78844;SDS011;68195;50.854;2.860;2023-09-30T03:41:32;12.48;;;3.22;;
78844;SDS011;68195;50.854;2.860;2023-09-30T03:44:02;8.55;;;3.58;;
78844;SDS011;68195;50.854;2.860;2023-09-30T03:46:27;11.18;;;3.50;;
78844;SDS011;68195;50.854;2.860;2023-09-30T03:51:18;14.57;;;3.30;;
78844;SDS011;68195;50.854;2.860;2023-09-30T03:53:52;12.68;;;3.85;;
78844;SDS011;68195;50.854;2.860;2023-09-30T03:56:20;7.95;;;3.10;;
78844;SDS011;68195;50.854;2.860;2023-09-30T03:58:47;11.45;;;3.58;;
78844;SDS011;68195;50.854;2.860;2023-09-30T04:03:42;10.25;;;3.63;;
78844;SDS011;68195;50.854;2.860;2023-09-30T04:06:08;6.68;;;3.03;;
78844;SDS011;68195;50.854;2.860;2023-09-30T04:08:34;9.00;;;3.00;;
78844;SDS011;68195;50.854;2.860;2023-09-30T04:11:02;9.60;;;3.17;;
78844;SDS011;68195;50.854;2.860;2023-09-30T04:15:54;7.88;;;3.08;;
78844;SDS011;68195;50.854;2.860;2023-09-30T04:18:20;11.02;;;2.92;;
78844;SDS011;68195;50.854;2.860;2023-09-30T04:20:46;9.48;;;3.15;;
78844;SDS011;68195;50.854;2.860;2023-09-30T04:23:13;8.23;;;3.00;;
78844;SDS011;68195;50.854;2.860;2023-09-30T04:25:38;8.90;;;4.05;;
78844;SDS011;68195;50.854;2.860;2023-09-30T04:28:08;8.73;;;3.47;;
78844;SDS011;68195;50.854;2.860;2023-09-30T04:32:59;6.70;;;2.63;;
78844;SDS011;68195;50.854;2.860;2023-09-30T04:35:29;13.95;;;3.95;;
78844;SDS011;68195;50.854;2.860;2023-09-30T04:37:57;9.80;;;3.17;;
78844;SDS011;68195;50.854;2.860;2023-09-30T04:40:33;6.28;;;3.03;;
78844;SDS011;68195;50.854;2.860;2023-09-30T04:42:59;9.38;;;3.85;;
78844;SDS011;68195;50.854;2.860;2023-09-30T04:47:51;9.45;;;3.38;;
78844;SDS011;68195;50.854;2.860;2023-09-30T04:50:19;8.68;;;3.38;;
78844;SDS011;68195;50.854;2.860;2023-09-30T04:52:47;6.35;;;3.42;;
78844;SDS011;68195;50.854;2.860;2023-09-30T04:55:16;9.25;;;3.80;;
78844;SDS011;68195;50.854;2.860;2023-09-30T04:57:43;8.10;;;3.33;;
78844;SDS011;68195;50.854;2.860;2023-09-30T05:00:11;7.35;;;3.92;;
78844;SDS011;68195;50.854;2.860;2023-09-30T05:02:38;7.65;;;2.92;;
78844;SDS011;68195;50.854;2.860;2023-09-30T05:05:08;9.52;;;3.60;;
78844;SDS011;68195;50.854;2.860;2023-09-30T05:09:59;10.03;;;3.53;;
78844;SDS011;68195;50.854;2.860;2023-09-30T05:12:33;7.18;;;2.92;;
78844;SDS011;68195;50.854;2.860;2023-09-30T05:14:58;7.38;;;3.78;;
78844;SDS011;68195;50.854;2.860;2023-09-30T05:19:53;7.55;;;3.15;;
78844;SDS011;68195;50.854;2.860;2023-09-30T05:22:19;8.52;;;3.42;;
78844;SDS011;68195;50.854;2.860;2023-09-30T05:24:48;5.97;;;2.97;;
78844;SDS011;68195;50.854;2.860;2023-09-30T05:27:18;8.40;;;3.17;;
78844;SDS011;68195;50.854;2.860;2023-09-30T05:29:46;5.13;;;2.50;;
78844;SDS011;68195;50.854;2.860;2023-09-30T05:32:11;5.38;;;2.85;;
78844;SDS011;68195;50.854;2.860;2023-09-30T05:34:39;5.95;;;2.70;;
78844;SDS011;68195;50.854;2.860;2023-09-30T05:39:30;7.20;;;2.33;;
78844;SDS011;68195;50.854;2.860;2023-09-30T05:41:56;3.25;;;2.40;;
78844;SDS011;68195;50.854;2.860;2023-09-30T05:44:25;3.55;;;2.28;;
78844;SDS011;68195;50.854;2.860;2023-09-30T05:46:53;4.43;;;2.33;;
78844;SDS011;68195;50.854;2.860;2023-09-30T05:49:21;5.88;;;2.30;;
78844;SDS011;68195;50.854;2.860;2023-09-30T05:51:48;4.63;;;2.20;;
78844;SDS011;68195;50.854;2.860;2023-09-30T05:54:15;4.05;;;1.98;;
78844;SDS011;68195;50.854;2.860;2023-09-30T05:56:41;4.68;;;2.22;;
78844;SDS011;68195;50.854;2.860;2023-09-30T05:59:08;3.05;;;1.83;;
78844;SDS011;68195;50.854;2.860;2023-09-30T06:01:34;4.38;;;1.77;;
78844;SDS011;68195;50.854;2.860;2023-09-30T06:04:01;3.53;;;1.85;;
78844;SDS011;68195;50.854;2.860;2023-09-30T06:06:29;3.42;;;2.20;;
78844;SDS011;68195;50.854;2.860;2023-09-30T06:08:58;4.20;;;2.30;;
78844;SDS011;68195;50.854;2.860;2023-09-30T06:11:28;4.15;;;2.20;;
78844;SDS011;68195;50.854;2.860;2023-09-30T06:13:56;4.82;;;2.22;;
78844;SDS011;68195;50.854;2.860;2023-09-30T06:16:26;5.57;;;2.05;;
78844;SDS011;68195;50.854;2.860;2023-09-30T06:18:56;2.75;;;2.03;;
78844;SDS011;68195;50.854;2.860;2023-09-30T06:21:27;3.20;;;1.95;;
78844;SDS011;68195;50.854;2.860;2023-09-30T06:23:56;6.05;;;3.53;;
78844;SDS011;68195;50.854;2.860;2023-09-30T06:26:24;5.00;;;3.15;;
78844;SDS011;68195;50.854;2.860;2023-09-30T06:28:54;3.92;;;2.25;;
78844;SDS011;68195;50.854;2.860;2023-09-30T06:31:22;4.18;;;2.50;;
78844;SDS011;68195;50.854;2.860;2023-09-30T06:33:53;3.72;;;2.65;;
78844;SDS011;68195;50.854;2.860;2023-09-30T06:36:23;4.38;;;2.45;;
78844;SDS011;68195;50.854;2.860;2023-09-30T06:41:18;7.35;;;2.60;;
78844;SDS011;68195;50.854;2.860;2023-09-30T06:43:43;5.15;;;2.42;;
78844;SDS011;68195;50.854;2.860;2023-09-30T06:46:09;4.60;;;2.40;;
78844;SDS011;68195;50.854;2.860;2023-09-30T06:51:05;4.78;;;2.13;;
78844;SDS011;68195;50.854;2.860;2023-09-30T06:53:40;4.55;;;2.17;;
78844;SDS011;68195;50.854;2.860;2023-09-30T06:56:05;2.53;;;1.77;;
78844;SDS011;68195;50.854;2.860;2023-09-30T07:00:59;3.42;;;1.90;;
78844;SDS011;68195;50.854;2.860;2023-09-30T07:03:26;4.28;;;1.83;;
78844;SDS011;68195;50.854;2.860;2023-09-30T07:05:55;5.22;;;2.10;;
78844;SDS011;68195;50.854;2.860;2023-09-30T07:08:26;3.70;;;1.77;;
78844;SDS011;68195;50.854;2.860;2023-09-30T07:10:59;3.92;;;2.28;;
78844;SDS011;68195;50.854;2.860;2023-09-30T07:13:25;5.32;;;2.50;;
78844;SDS011;68195;50.854;2.860;2023-09-30T07:15:50;5.85;;;2.63;;
78844;SDS011;68195;50.854;2.860;2023-09-30T07:18:18;6.05;;;2.58;;
78844;SDS011;68195;50.854;2.860;2023-09-30T07:20:49;6.22;;;3.17;;
78844;SDS011;68195;50.854;2.860;2023-09-30T07:23:19;5.28;;;2.50;;
78844;SDS011;68195;50.854;2.860;2023-09-30T07:25:47;5.75;;;2.72;;
78844;SDS011;68195;50.854;2.860;2023-09-30T07:28:13;4.97;;;2.85;;
78844;SDS011;68195;50.854;2.860;2023-09-30T07:33:05;3.03;;;2.13;;
78844;SDS011;68195;50.854;2.860;2023-09-30T07:35:31;6.15;;;2.40;;
78844;SDS011;68195;50.854;2.860;2023-09-30T07:37:57;4.03;;;2.50;;
78844;SDS011;68195;50.854;2.860;2023-09-30T07:42:48;4.17;;;2.57;;
78844;SDS011;68195;50.854;2.860;2023-09-30T07:45:18;7.28;;;3.08;;
78844;SDS011;68195;50.854;2.860;2023-09-30T07:47:45;4.88;;;3.08;;
78844;SDS011;68195;50.854;2.860;2023-09-30T07:50:14;4.78;;;2.55;;
78844;SDS011;68195;50.854;2.860;2023-09-30T07:52:42;7.75;;;2.97;;
78844;SDS011;68195;50.854;2.860;2023-09-30T07:57:36;6.70;;;3.53;;
78844;SDS011;68195;50.854;2.860;2023-09-30T08:00:03;7.65;;;3.80;;
78844;SDS011;68195;50.854;2.860;2023-09-30T08:02:42;10.30;;;4.20;;
78844;SDS011;68195;50.854;2.860;2023-09-30T08:05:10;8.30;;;4.10;;
78844;SDS011;68195;50.854;2.860;2023-09-30T08:07:37;11.90;;;4.93;;
78844;SDS011;68195;50.854;2.860;2023-09-30T08:10:05;9.35;;;4.15;;
78844;SDS011;68195;50.854;2.860;2023-09-30T08:12:38;10.65;;;4.45;;
78844;SDS011;68195;50.854;2.860;2023-09-30T08:15:14;9.52;;;4.45;;
78844;SDS011;68195;50.854;2.860;2023-09-30T08:20:08;13.13;;;4.93;;
78844;SDS011;68195;50.854;2.860;2023-09-30T08:22:36;12.82;;;5.22;;
78844;SDS011;68195;50.854;2.860;2023-09-30T08:27:27;10.20;;;4.13;;
78844;SDS011;68195;50.854;2.860;2023-09-30T08:32:18;9.05;;;4.22;;
78844;SDS011;68195;50.854;2.860;2023-09-30T08:37:09;12.20;;;5.33;;
78844;SDS011;68195;50.854;2.860;2023-09-30T08:39:40;9.00;;;4.80;;
78844;SDS011;68195;50.854;2.860;2023-09-30T08:42:08;14.23;;;4.90;;
78844;SDS011;68195;50.854;2.860;2023-09-30T08:44:38;15.35;;;4.95;;
78844;SDS011;68195;50.854;2.860;2023-09-30T08:49:32;8.07;;;4.38;;
78844;SDS011;68195;50.854;2.860;2023-09-30T08:52:05;8.23;;;5.70;;
78844;SDS011;68195;50.854;2.860;2023-09-30T08:54:33;9.95;;;4.53;;
78844;SDS011;68195;50.854;2.860;2023-09-30T08:59:25;13.25;;;4.32;;
78844;SDS011;68195;50.854;2.860;2023-09-30T09:01:54;11.60;;;4.20;;
78844;SDS011;68195;50.854;2.860;2023-09-30T09:04:23;5.82;;;3.50;;
78844;SDS011;68195;50.854;2.860;2023-09-30T09:06:49;9.65;;;4.68;;
78844;SDS011;68195;50.854;2.860;2023-09-30T09:09:18;13.48;;;10.13;;
78844;SDS011;68195;50.854;2.860;2023-09-30T09:11:44;8.82;;;4.10;;
78844;SDS011;68195;50.854;2.860;2023-09-30T09:14:13;6.63;;;4.18;;
78844;SDS011;68195;50.854;2.860;2023-09-30T09:16:51;12.82;;;4.60;;
78844;SDS011;68195;50.854;2.860;2023-09-30T09:19:20;12.82;;;4.30;;
78844;SDS011;68195;50.854;2.860;2023-09-30T09:21:56;8.48;;;4.00;;
78844;SDS011;68195;50.854;2.860;2023-09-30T09:24:27;10.30;;;3.65;;
78844;SDS011;68195;50.854;2.860;2023-09-30T09:27:04;10.70;;;3.67;;
78844;SDS011;68195;50.854;2.860;2023-09-30T09:29:32;11.43;;;3.50;;
78844;SDS011;68195;50.854;2.860;2023-09-30T09:34:39;10.75;;;6.18;;
78844;SDS011;68195;50.854;2.860;2023-09-30T09:37:15;13.02;;;5.43;;
78844;SDS011;68195;50.854;2.860;2023-09-30T09:39:57;7.07;;;3.05;;
78844;SDS011;68195;50.854;2.860;2023-09-30T09:42:29;7.18;;;2.60;;
78844;SDS011;68195;50.854;2.860;2023-09-30T09:44:57;7.03;;;3.45;;
78844;SDS011;68195;50.854;2.860;2023-09-30T09:47:29;9.73;;;2.35;;
78844;SDS011;68195;50.854;2.860;2023-09-30T09:49:56;11.63;;;2.75;;
78844;SDS011;68195;50.854;2.860;2023-09-30T09:52:23;6.78;;;2.13;;
78844;SDS011;68195;50.854;2.860;2023-09-30T09:54:51;10.52;;;2.33;;
78844;SDS011;68195;50.854;2.860;2023-09-30T09:57:18;6.72;;;2.03;;
78844;SDS011;68195;50.854;2.860;2023-09-30T09:59:44;7.07;;;2.17;;
78844;SDS011;68195;50.854;2.860;2023-09-30T10:02:14;4.05;;;2.25;;
78844;SDS011;68195;50.854;2.860;2023-09-30T10:04:44;9.15;;;1.92;;
78844;SDS011;68195;50.854;2.860;2023-09-30T10:07:20;7.13;;;2.30;;
78844;SDS011;68195;50.854;2.860;2023-09-30T10:09:49;9.27;;;1.95;;
78844;SDS011;68195;50.854;2.860;2023-09-30T10:12:17;5.72;;;2.30;;
78844;SDS011;68195;50.854;2.860;2023-09-30T10:14:46;10.15;;;2.30;;
78844;SDS011;68195;50.854;2.860;2023-09-30T10:17:12;6.35;;;1.85;;
78844;SDS011;68195;50.854;2.860;2023-09-30T10:20:03;5.13;;;1.73;;
78844;SDS011;68195;50.854;2.860;2023-09-30T10:22:37;4.78;;;1.70;;
78844;SDS011;68195;50.854;2.860;2023-09-30T10:25:32;9.40;;;1.65;;
78844;SDS011;68195;50.854;2.860;2023-09-30T10:28:03;5.25;;;1.30;;
78844;SDS011;68195;50.854;2.860;2023-09-30T10:31:19;7.28;;;1.83;;
78844;SDS011;68195;50.854;2.860;2023-09-30T10:36:27;6.32;;;2.05;;
78844;SDS011;68195;50.854;2.860;2023-09-30T10:38:56;8.60;;;2.00;;
78844;SDS011;68195;50.854;2.860;2023-09-30T10:46:59;6.93;;;1.50;;
78844;SDS011;68195;50.854;2.860;2023-09-30T10:49:47;5.13;;;2.25;;
78844;SDS011;68195;50.854;2.860;2023-09-30T10:52:13;7.97;;;1.73;;
78844;SDS011;68195;50.854;2.860;2023-09-30T10:54:50;6.90;;;1.70;;
78844;SDS011;68195;50.854;2.860;2023-09-30T10:57:28;7.15;;;2.22;;
78844;SDS011;68195;50.854;2.860;2023-09-30T11:02:39;8.15;;;2.13;;
78844;SDS011;68195;50.854;2.860;2023-09-30T11:05:13;8.40;;;2.30;;
78844;SDS011;68195;50.854;2.860;2023-09-30T11:07:39;5.53;;;2.10;;
78844;SDS011;68195;50.854;2.860;2023-09-30T11:10:08;6.40;;;2.95;;
78844;SDS011;68195;50.854;2.860;2023-09-30T11:12:34;5.70;;;1.73;;
78844;SDS011;68195;50.854;2.860;2023-09-30T11:15:02;10.52;;;2.05;;
78844;SDS011;68195;50.854;2.860;2023-09-30T11:17:28;7.53;;;2.58;;
78844;SDS011;68195;50.854;2.860;2023-09-30T11:19:56;4.90;;;1.60;;
78844;SDS011;68195;50.854;2.860;2023-09-30T11:22:21;8.43;;;2.00;;
78844;SDS011;68195;50.854;2.860;2023-09-30T11:24:47;7.25;;;3.35;;
78844;SDS011;68195;50.854;2.860;2023-09-30T11:27:15;7.13;;;2.35;;
78844;SDS011;68195;50.854;2.860;2023-09-30T11:29:49;5.47;;;1.77;;
78844;SDS011;68195;50.854;2.860;2023-09-30T11:32:27;8.50;;;3.33;;
78844;SDS011;68195;50.854;2.860;2023-09-30T11:34:56;8.50;;;2.00;;
78844;SDS011;68195;50.854;2.860;2023-09-30T11:37:30;10.23;;;1.90;;
78844;SDS011;68195;50.854;2.860;2023-09-30T11:40:07;9.18;;;2.20;;
78844;SDS011;68195;50.854;2.860;2023-09-30T11:42:36;7.90;;;2.08;;
78844;SDS011;68195;50.854;2.860;2023-09-30T11:45:02;6.72;;;2.03;;
78844;SDS011;68195;50.854;2.860;2023-09-30T11:47:28;8.35;;;1.80;;
78844;SDS011;68195;50.854;2.860;2023-09-30T11:49:59;5.97;;;1.90;;
78844;SDS011;68195;50.854;2.860;2023-09-30T11:52:27;6.15;;;2.78;;
78844;SDS011;68195;50.854;2.860;2023-09-30T11:54:55;7.55;;;2.65;;
78844;SDS011;68195;50.854;2.860;2023-09-30T11:57:23;9.35;;;2.50;;
78844;SDS011;68195;50.854;2.860;2023-09-30T11:59:50;8.45;;;2.47;;
78844;SDS011;68195;50.854;2.860;2023-09-30T12:02:16;11.88;;;2.70;;
78844;SDS011;68195;50.854;2.860;2023-09-30T12:04:45;9.50;;;2.00;;
78844;SDS011;68195;50.854;2.860;2023-09-30T12:07:12;9.25;;;2.15;;
78844;SDS011;68195;50.854;2.860;2023-09-30T12:09:42;7.60;;;2.30;;
78844;SDS011;68195;50.854;2.860;2023-09-30T12:12:08;7.72;;;2.28;;
78844;SDS011;68195;50.854;2.860;2023-09-30T12:14:42;4.10;;;1.83;;
78844;SDS011;68195;50.854;2.860;2023-09-30T12:17:10;10.27;;;2.35;;
78844;SDS011;68195;50.854;2.860;2023-09-30T12:19:36;9.15;;;2.33;;
78844;SDS011;68195;50.854;2.860;2023-09-30T12:22:04;6.32;;;2.50;;
78844;SDS011;68195;50.854;2.860;2023-09-30T12:24:32;8.50;;;1.85;;
78844;SDS011;68195;50.854;2.860;2023-09-30T12:26:57;7.15;;;1.98;;
78844;SDS011;68195;50.854;2.860;2023-09-30T12:29:23;8.65;;;2.13;;
78844;SDS011;68195;50.854;2.860;2023-09-30T12:31:49;6.82;;;2.05;;
78844;SDS011;68195;50.854;2.860;2023-09-30T12:34:16;8.43;;;2.60;;
78844;SDS011;68195;50.854;2.860;2023-09-30T12:36:42;7.30;;;2.15;;
78844;SDS011;68195;50.854;2.860;2023-09-30T12:39:10;5.47;;;1.80;;
78844;SDS011;68195;50.854;2.860;2023-09-30T12:41:40;4.30;;;2.00;;
78844;SDS011;68195;50.854;2.860;2023-09-30T12:44:07;10.30;;;2.25;;
78844;SDS011;68195;50.854;2.860;2023-09-30T12:46:35;7.53;;;2.42;;
78844;SDS011;68195;50.854;2.860;2023-09-30T12:49:05;7.88;;;1.98;;
78844;SDS011;68195;50.854;2.860;2023-09-30T12:51:34;5.40;;;2.15;;
78844;SDS011;68195;50.854;2.860;2023-09-30T12:54:00;7.70;;;2.90;;
78844;SDS011;68195;50.854;2.860;2023-09-30T12:56:26;7.80;;;2.30;;
78844;SDS011;68195;50.854;2.860;2023-09-30T12:58:54;7.40;;;1.83;;
78844;SDS011;68195;50.854;2.860;2023-09-30T13:01:22;7.72;;;3.00;;
78844;SDS011;68195;50.854;2.860;2023-09-30T13:03:48;6.15;;;2.22;;
78844;SDS011;68195;50.854;2.860;2023-09-30T13:06:16;8.07;;;2.05;;
78844;SDS011;68195;50.854;2.860;2023-09-30T13:08:44;10.45;;;2.67;;
78844;SDS011;68195;50.854;2.860;2023-09-30T13:11:12;5.80;;;1.77;;
78844;SDS011;68195;50.854;2.860;2023-09-30T13:13:38;5.85;;;2.08;;
78844;SDS011;68195;50.854;2.860;2023-09-30T13:16:05;10.27;;;1.90;;
78844;SDS011;68195;50.854;2.860;2023-09-30T13:18:30;6.88;;;2.45;;
78844;SDS011;68195;50.854;2.860;2023-09-30T13:20:56;6.00;;;2.25;;
78844;SDS011;68195;50.854;2.860;2023-09-30T13:23:24;6.28;;;2.20;;
78844;SDS011;68195;50.854;2.860;2023-09-30T13:25:54;11.98;;;2.80;;
78844;SDS011;68195;50.854;2.860;2023-09-30T13:28:19;7.78;;;2.13;;
78844;SDS011;68195;50.854;2.860;2023-09-30T13:30:44;8.15;;;2.03;;
78844;SDS011;68195;50.854;2.860;2023-09-30T13:33:10;5.75;;;1.90;;
78844;SDS011;68195;50.854;2.860;2023-09-30T13:35:36;12.32;;;2.50;;
78844;SDS011;68195;50.854;2.860;2023-09-30T13:38:04;6.22;;;2.08;;
78844;SDS011;68195;50.854;2.860;2023-09-30T13:40:29;4.80;;;1.73;;
78844;SDS011;68195;50.854;2.860;2023-09-30T13:42:55;5.47;;;1.73;;
78844;SDS011;68195;50.854;2.860;2023-09-30T13:45:24;9.50;;;2.45;;
78844;SDS011;68195;50.854;2.860;2023-09-30T13:47:50;7.93;;;2.10;;
78844;SDS011;68195;50.854;2.860;2023-09-30T13:50:15;8.55;;;2.00;;
78844;SDS011;68195;50.854;2.860;2023-09-30T13:52:41;6.57;;;2.35;;
78844;SDS011;68195;50.854;2.860;2023-09-30T13:55:06;8.32;;;2.45;;
78844;SDS011;68195;50.854;2.860;2023-09-30T13:57:33;6.35;;;1.70;;
78844;SDS011;68195;50.854;2.860;2023-09-30T14:00:02;5.45;;;2.40;;
78844;SDS011;68195;50.854;2.860;2023-09-30T14:02:32;6.47;;;2.28;;
78844;SDS011;68195;50.854;2.860;2023-09-30T14:04:58;11.48;;;2.33;;
78844;SDS011;68195;50.854;2.860;2023-09-30T14:07:26;10.20;;;2.90;;
78844;SDS011;68195;50.854;2.860;2023-09-30T14:09:52;7.80;;;2.15;;
78844;SDS011;68195;50.854;2.860;2023-09-30T14:12:18;8.23;;;2.15;;
78844;SDS011;68195;50.854;2.860;2023-09-30T14:14:43;7.97;;;2.45;;
78844;SDS011;68195;50.854;2.860;2023-09-30T14:17:11;10.05;;;3.65;;
78844;SDS011;68195;50.854;2.860;2023-09-30T14:19:37;8.20;;;1.75;;
78844;SDS011;68195;50.854;2.860;2023-09-30T14:22:04;8.73;;;2.15;;
78844;SDS011;68195;50.854;2.860;2023-09-30T14:24:30;4.43;;;1.48;;
78844;SDS011;68195;50.854;2.860;2023-09-30T14:26:58;9.10;;;2.17;;
78844;SDS011;68195;50.854;2.860;2023-09-30T14:29:30;9.43;;;2.85;;
78844;SDS011;68195;50.854;2.860;2023-09-30T14:31:57;6.68;;;1.95;;
78844;SDS011;68195;50.854;2.860;2023-09-30T14:34:23;8.55;;;1.88;;
78844;SDS011;68195;50.854;2.860;2023-09-30T14:37:04;7.15;;;2.15;;
78844;SDS011;68195;50.854;2.860;2023-09-30T14:39:32;5.72;;;1.98;;
78844;SDS011;68195;50.854;2.860;2023-09-30T14:41:57;10.55;;;2.55;;
78844;SDS011;68195;50.854;2.860;2023-09-30T14:44:25;7.72;;;1.88;;
78844;SDS011;68195;50.854;2.860;2023-09-30T14:46:51;5.72;;;2.13;;
78844;SDS011;68195;50.854;2.860;2023-09-30T14:49:16;7.60;;;2.50;;
78844;SDS011;68195;50.854;2.860;2023-09-30T14:51:44;6.45;;;2.20;;
78844;SDS011;68195;50.854;2.860;2023-09-30T14:54:13;5.05;;;1.80;;
78844;SDS011;68195;50.854;2.860;2023-09-30T14:56:38;9.23;;;2.50;;
78844;SDS011;68195;50.854;2.860;2023-09-30T14:59:04;9.02;;;2.83;;
78844;SDS011;68195;50.854;2.860;2023-09-30T15:01:31;7.22;;;2.13;;
78844;SDS011;68195;50.854;2.860;2023-09-30T15:03:58;6.82;;;1.98;;
78844;SDS011;68195;50.854;2.860;2023-09-30T15:06:24;5.00;;;2.40;;
78844;SDS011;68195;50.854;2.860;2023-09-30T15:08:49;7.45;;;2.28;;
78844;SDS011;68195;50.854;2.860;2023-09-30T15:11:15;8.93;;;2.17;;
78844;SDS011;68195;50.854;2.860;2023-09-30T15:13:43;10.85;;;2.35;;
78844;SDS011;68195;50.854;2.860;2023-09-30T15:16:14;4.55;;;2.10;;
78844;SDS011;68195;50.854;2.860;2023-09-30T15:18:41;9.93;;;2.67;;
78844;SDS011;68195;50.854;2.860;2023-09-30T15:21:06;8.23;;;2.30;;
78844;SDS011;68195;50.854;2.860;2023-09-30T15:23:31;7.70;;;2.03;;
78844;SDS011;68195;50.854;2.860;2023-09-30T15:25:57;6.32;;;2.30;;
78844;SDS011;68195;50.854;2.860;2023-09-30T15:28:22;8.93;;;2.10;;
78844;SDS011;68195;50.854;2.860;2023-09-30T15:30:50;8.35;;;1.90;;
78844;SDS011;68195;50.854;2.860;2023-09-30T15:33:15;3.55;;;2.17;;
78844;SDS011;68195;50.854;2.860;2023-09-30T15:35:42;6.90;;;1.88;;
78844;SDS011;68195;50.854;2.860;2023-09-30T15:38:14;5.38;;;2.28;;
78844;SDS011;68195;50.854;2.860;2023-09-30T15:43:22;7.57;;;1.85;;
78844;SDS011;68195;50.854;2.860;2023-09-30T15:45:49;17.17;;;4.10;;
78844;SDS011;68195;50.854;2.860;2023-09-30T15:48:18;9.98;;;2.95;;
78844;SDS011;68195;50.854;2.860;2023-09-30T15:50:44;6.43;;;2.63;;
78844;SDS011;68195;50.854;2.860;2023-09-30T15:53:10;5.32;;;1.77;;
78844;SDS011;68195;50.854;2.860;2023-09-30T15:55:38;6.32;;;1.90;;
78844;SDS011;68195;50.854;2.860;2023-09-30T15:58:04;9.20;;;2.95;;
78844;SDS011;68195;50.854;2.860;2023-09-30T16:00:30;8.93;;;2.40;;
78844;SDS011;68195;50.854;2.860;2023-09-30T16:02:56;8.07;;;2.22;;
78844;SDS011;68195;50.854;2.860;2023-09-30T16:05:25;5.13;;;1.98;;
78844;SDS011;68195;50.854;2.860;2023-09-30T16:07:55;10.73;;;2.25;;
78844;SDS011;68195;50.854;2.860;2023-09-30T16:10:20;7.20;;;1.88;;
78844;SDS011;68195;50.854;2.860;2023-09-30T16:12:45;5.50;;;1.80;;
78844;SDS011;68195;50.854;2.860;2023-09-30T16:15:13;5.78;;;2.05;;
78844;SDS011;68195;50.854;2.860;2023-09-30T16:17:39;10.90;;;2.35;;
78844;SDS011;68195;50.854;2.860;2023-09-30T16:20:04;7.25;;;1.95;;
78844;SDS011;68195;50.854;2.860;2023-09-30T16:22:33;6.75;;;2.47;;
78844;SDS011;68195;50.854;2.860;2023-09-30T16:24:58;7.43;;;1.75;;
78844;SDS011;68195;50.854;2.860;2023-09-30T16:27:25;7.95;;;2.10;;
78844;SDS011;68195;50.854;2.860;2023-09-30T16:29:51;6.47;;;1.85;;
78844;SDS011;68195;50.854;2.860;2023-09-30T16:32:18;5.82;;;1.75;;
78844;SDS011;68195;50.854;2.860;2023-09-30T16:34:44;6.25;;;2.00;;
78844;SDS011;68195;50.854;2.860;2023-09-30T16:37:09;7.63;;;2.60;;
78844;SDS011;68195;50.854;2.860;2023-09-30T16:39:34;8.10;;;2.00;;
78844;SDS011;68195;50.854;2.860;2023-09-30T16:42:03;5.60;;;1.88;;
78844;SDS011;68195;50.854;2.860;2023-09-30T16:44:31;5.88;;;1.75;;
78844;SDS011;68195;50.854;2.860;2023-09-30T16:47:02;11.45;;;3.45;;
78844;SDS011;68195;50.854;2.860;2023-09-30T16:49:28;4.75;;;1.80;;